Time;durP1;ratioP1;P1;durP2;ratioP2;P2;SDS_P1;SDS_P2;PMS_P1;PMS_P2;Temp;Humidity;BMP_temperature;BMP_pressure;BME280_temperature;BME280_humidity;BME280_pressure;Samples;Min_cycle;Max_cycle;Signal;HPM_P1;HPM_P2
2022/07/16 00:02:25;;;;;;;3.78;1.98;;;16.50;99.90;;;;;;5112589;28;20051;-26
2022/07/16 00:04:50;;;;;;;2.28;2.08;;;16.50;99.90;;;;;;5094052;28;20048;-28
2022/07/16 00:07:16;;;;;;;4.28;2.17;;;16.50;99.90;;;;;;5101800;28;20043;-26
2022/07/16 00:09:42;;;;;;;4.60;2.05;;;16.40;99.90;;;;;;5091997;28;20036;-27
2022/07/16 00:12:07;;;;;;;4.53;2.20;;;16.40;99.90;;;;;;5056633;28;20047;-26
2022/07/16 00:14:33;;;;;;;3.72;2.10;;;16.40;99.90;;;;;;5091856;28;20164;-26
2022/07/16 00:16:59;;;;;;;2.55;2.00;;;16.40;99.90;;;;;;5091988;28;20068;-26
2022/07/16 00:19:27;;;;;;;3.08;2.20;;;16.30;99.90;;;;;;5091644;28;20042;-26
2022/07/16 00:21:55;;;;;;;3.17;2.17;;;16.40;99.90;;;;;;5091337;28;20076;-27
2022/07/16 00:24:21;;;;;;;2.97;2.03;;;16.30;99.90;;;;;;5091617;28;20312;-26
2022/07/16 00:26:47;;;;;;;2.13;1.92;;;16.40;99.90;;;;;;5091456;28;20485;-27
2022/07/16 00:29:15;;;;;;;2.45;2.03;;;16.30;99.90;;;;;;5091414;28;20047;-26
2022/07/16 00:31:42;;;;;;;4.32;2.42;;;16.30;99.90;;;;;;5091381;28;20040;-26
2022/07/16 00:34:08;;;;;;;3.30;2.53;;;16.30;99.90;;;;;;5091895;28;20489;-26
2022/07/16 00:36:36;;;;;;;3.22;2.28;;;16.30;99.90;;;;;;5091260;28;20408;-27
2022/07/16 00:39:06;;;;;;;3.15;2.00;;;16.30;99.90;;;;;;5091659;28;20405;-26
2022/07/16 00:41:32;;;;;;;2.42;2.00;;;16.40;99.90;;;;;;5093153;28;20075;-26
2022/07/16 00:44:04;;;;;;;4.22;2.97;;;16.40;99.90;;;;;;5099874;28;20089;-30
2022/07/16 00:46:30;;;;;;;3.08;2.28;;;16.40;99.90;;;;;;5101746;28;20055;-30
2022/07/16 00:48:59;;;;;;;4.63;2.40;;;16.40;99.90;;;;;;5101018;28;20461;-36
2022/07/16 00:51:26;;;;;;;2.50;2.13;;;16.40;99.90;;;;;;5107280;28;20081;-31
2022/07/16 00:53:54;;;;;;;3.05;2.35;;;16.50;99.90;;;;;;5094794;28;20058;-33
2022/07/16 00:56:24;;;;;;;3.08;2.42;;;16.50;99.90;;;;;;5101870;28;20047;-26
2022/07/16 00:58:53;;;;;;;2.42;2.22;;;16.50;99.90;;;;;;5111355;28;20119;-26
2022/07/16 01:01:25;;;;;;;3.60;2.50;;;16.50;99.90;;;;;;5102498;28;20236;-26
2022/07/16 01:03:54;;;;;;;4.53;2.75;;;16.50;99.90;;;;;;5091173;28;20044;-27
2022/07/16 01:06:20;;;;;;;2.40;2.20;;;16.50;99.90;;;;;;5091255;28;20038;-26
2022/07/16 01:08:47;;;;;;;4.28;2.58;;;16.50;99.90;;;;;;5077750;28;20040;-27
2022/07/16 01:11:16;;;;;;;2.67;2.33;;;16.50;99.90;;;;;;5093284;28;20078;-27
2022/07/16 01:13:45;;;;;;;2.60;2.35;;;16.50;99.90;;;;;;5115372;28;20078;-27
2022/07/16 01:16:12;;;;;;;3.92;2.75;;;16.50;99.90;;;;;;5102446;28;20089;-27
2022/07/16 01:18:39;;;;;;;3.13;2.38;;;16.50;99.90;;;;;;5109373;28;20054;-29
2022/07/16 01:21:05;;;;;;;3.28;2.60;;;16.50;99.90;;;;;;5105720;28;20420;-32
2022/07/16 01:23:31;;;;;;;5.65;3.03;;;16.50;99.90;;;;;;5112587;28;20059;-29
2022/07/16 01:25:57;;;;;;;4.60;2.60;;;16.50;99.90;;;;;;5108782;28;20069;-31
2022/07/16 01:28:22;;;;;;;2.85;2.60;;;16.50;99.90;;;;;;5096152;28;20342;-32
2022/07/16 01:30:49;;;;;;;5.97;2.90;;;16.50;99.90;;;;;;5109541;28;20038;-31
2022/07/16 01:33:18;;;;;;;4.32;2.70;;;16.50;99.90;;;;;;5103288;28;20044;-29
2022/07/16 01:35:47;;;;;;;2.83;2.45;;;16.50;99.90;;;;;;5107515;28;20044;-30
2022/07/16 01:38:24;;;;;;;4.35;2.65;;;16.50;99.90;;;;;;5086481;28;20040;-31
2022/07/16 01:40:49;;;;;;;3.63;2.67;;;16.50;99.90;;;;;;5104943;28;20479;-32
2022/07/16 01:43:17;;;;;;;3.25;2.95;;;16.50;99.90;;;;;;5094289;28;20031;-30
2022/07/16 01:45:43;;;;;;;3.58;2.80;;;16.50;99.90;;;;;;5111463;28;20035;-33
2022/07/16 01:48:10;;;;;;;6.25;3.00;;;16.40;99.90;;;;;;5105249;28;20040;-31
2022/07/16 01:50:36;;;;;;;4.45;3.22;;;16.30;99.90;;;;;;5095199;28;20050;-30
2022/07/16 01:53:04;;;;;;;4.13;3.50;;;16.30;99.90;;;;;;5111166;28;20060;-33
2022/07/16 01:55:30;;;;;;;4.03;2.78;;;16.30;99.90;;;;;;5101834;28;20412;-31
2022/07/16 01:57:56;;;;;;;3.88;3.05;;;16.20;99.90;;;;;;5109513;28;20035;-33
2022/07/16 02:00:22;;;;;;;3.50;3.20;;;16.20;99.90;;;;;;5084366;28;20076;-32
2022/07/16 02:02:47;;;;;;;4.97;3.25;;;16.20;99.90;;;;;;5085973;28;20477;-30
2022/07/16 02:05:13;;;;;;;5.75;3.53;;;16.10;99.90;;;;;;5091287;28;20043;-32
2022/07/16 02:07:39;;;;;;;3.85;3.33;;;16.10;99.90;;;;;;5106748;28;20036;-34
2022/07/16 02:10:06;;;;;;;5.00;3.40;;;16.00;99.90;;;;;;5067861;28;20043;-29
2022/07/16 02:12:34;;;;;;;3.95;3.47;;;16.00;99.90;;;;;;5105056;28;20032;-31
2022/07/16 02:15:00;;;;;;;3.55;3.25;;;16.00;99.90;;;;;;5104840;28;20074;-31
2022/07/16 02:17:26;;;;;;;6.45;3.38;;;15.90;99.90;;;;;;5105236;28;20453;-29
2022/07/16 02:19:54;;;;;;;3.63;3.33;;;15.90;99.90;;;;;;5101444;28;20396;-31
2022/07/16 02:22:20;;;;;;;5.75;3.88;;;15.90;99.90;;;;;;5102935;28;20036;-31
2022/07/16 02:24:48;;;;;;;4.57;3.70;;;15.90;99.90;;;;;;5108216;28;20067;-30
2022/07/16 02:27:14;;;;;;;5.55;4.10;;;15.90;99.90;;;;;;5102009;28;20298;-33
2022/07/16 02:29:40;;;;;;;5.00;3.95;;;15.90;99.90;;;;;;5113042;28;20354;-31
2022/07/16 02:32:05;;;;;;;4.03;3.65;;;15.90;99.90;;;;;;5103898;28;20469;-29
2022/07/16 02:34:31;;;;;;;5.65;3.53;;;15.90;99.90;;;;;;5107756;28;20028;-25
2022/07/16 02:36:57;;;;;;;4.40;3.60;;;15.90;99.90;;;;;;5102525;28;20120;-26
2022/07/16 02:39:22;;;;;;;5.60;3.85;;;15.90;99.90;;;;;;5106609;28;20043;-32
2022/07/16 02:41:48;;;;;;;4.95;4.30;;;15.80;99.90;;;;;;5105343;28;20446;-27
2022/07/16 02:44:14;;;;;;;4.78;4.15;;;15.90;99.90;;;;;;5106726;28;20073;-30
2022/07/16 02:46:39;;;;;;;5.00;4.50;;;15.80;99.90;;;;;;5094682;28;20076;-30
2022/07/16 02:49:05;;;;;;;7.28;4.20;;;15.80;99.90;;;;;;5106737;28;20043;-25
2022/07/16 02:51:31;;;;;;;4.53;4.13;;;15.80;99.90;;;;;;5076081;28;20489;-30
2022/07/16 02:53:57;;;;;;;4.55;4.15;;;15.80;99.90;;;;;;5083057;28;20104;-31
2022/07/16 02:56:23;;;;;;;4.57;4.15;;;15.80;99.90;;;;;;5094458;28;20124;-26
2022/07/16 02:58:48;;;;;;;4.57;4.07;;;15.80;99.90;;;;;;5102713;28;20073;-26
2022/07/16 03:01:17;;;;;;;4.72;4.25;;;15.70;99.90;;;;;;5112114;28;20035;-26
2022/07/16 03:03:45;;;;;;;6.78;4.60;;;15.80;99.90;;;;;;5101315;28;20054;-26
2022/07/16 03:06:11;;;;;;;4.30;3.90;;;15.70;99.90;;;;;;5107369;28;20062;-28
2022/07/16 03:08:39;;;;;;;5.30;3.90;;;15.70;99.90;;;;;;5104642;28;20521;-27
2022/07/16 03:11:08;;;;;;;5.88;3.95;;;15.60;99.90;;;;;;5104613;28;20035;-27
2022/07/16 03:13:33;;;;;;;5.22;3.70;;;15.60;99.90;;;;;;5095061;28;20039;-27
2022/07/16 03:15:59;;;;;;;6.00;3.05;;;15.60;99.90;;;;;;5109428;28;20036;-26
2022/07/16 03:18:28;;;;;;;4.25;3.45;;;15.50;99.90;;;;;;5074716;28;20036;-26
2022/07/16 03:20:53;;;;;;;7.00;3.58;;;15.50;99.90;;;;;;5083213;28;20504;-25
2022/07/16 03:23:19;;;;;;;6.03;3.78;;;15.50;99.90;;;;;;5105617;28;20044;-27
2022/07/16 03:25:45;;;;;;;5.10;3.47;;;15.50;99.90;;;;;;5113369;28;20563;-26
2022/07/16 03:28:10;;;;;;;4.22;3.05;;;15.40;99.90;;;;;;5084846;28;20040;-26
2022/07/16 03:30:36;;;;;;;5.38;3.30;;;15.40;99.90;;;;;;5092922;28;20362;-26
2022/07/16 03:33:03;;;;;;;4.57;3.17;;;15.40;99.90;;;;;;5097086;28;20031;-26
2022/07/16 03:35:29;;;;;;;7.05;3.38;;;15.40;99.90;;;;;;5101718;28;20104;-27
2022/07/16 03:40:40;;;;;;;4.20;3.30;;;15.40;99.90;;;;;;5112872;28;20043;-27
2022/07/16 03:43:05;;;;;;;4.07;3.33;;;15.40;99.90;;;;;;5112601;28;20357;-26
2022/07/16 03:45:31;;;;;;;4.95;3.08;;;15.40;99.90;;;;;;5103951;28;20043;-27
2022/07/16 03:47:57;;;;;;;5.20;2.90;;;15.30;99.90;;;;;;5112538;28;20039;-26
2022/07/16 03:50:23;;;;;;;3.95;2.85;;;15.30;99.90;;;;;;5109578;28;20044;-26
2022/07/16 03:52:49;;;;;;;4.70;2.90;;;15.40;99.90;;;;;;5073788;28;20046;-28
2022/07/16 03:55:14;;;;;;;3.22;2.50;;;15.30;99.90;;;;;;5103299;28;20123;-26
2022/07/16 03:57:41;;;;;;;2.72;2.47;;;15.40;99.90;;;;;;5105828;28;20081;-26
2022/07/16 04:00:11;;;;;;;4.65;2.80;;;15.30;99.90;;;;;;5092585;28;20401;-25
2022/07/16 04:02:37;;;;;;;4.80;2.50;;;15.30;99.90;;;;;;5091815;28;20039;-27
2022/07/16 04:05:03;;;;;;;4.60;2.55;;;15.30;99.90;;;;;;5092301;28;20046;-26
2022/07/16 04:07:29;;;;;;;5.43;2.50;;;15.30;99.90;;;;;;5073944;28;20122;-25
2022/07/16 04:09:55;;;;;;;5.95;2.85;;;15.20;99.90;;;;;;5092183;28;20127;-26
2022/07/16 04:12:24;;;;;;;5.07;2.35;;;15.20;99.90;;;;;;5092220;28;20081;-26
2022/07/16 04:14:51;;;;;;;4.45;2.50;;;15.20;99.90;;;;;;5092047;28;20435;-27
2022/07/16 04:17:17;;;;;;;3.28;2.78;;;15.10;99.90;;;;;;5091970;28;20053;-26
2022/07/16 04:19:42;;;;;;;3.45;2.58;;;15.10;99.90;;;;;;5092147;28;20123;-25
2022/07/16 04:22:08;;;;;;;5.03;2.60;;;15.10;99.90;;;;;;5091796;28;20032;-25
2022/07/16 04:24:34;;;;;;;5.50;2.72;;;15.00;99.90;;;;;;5091859;28;20165;-26
2022/07/16 04:26:59;;;;;;;4.55;2.75;;;15.00;99.90;;;;;;5091319;28;20036;-27
2022/07/16 04:29:25;;;;;;;4.10;2.38;;;15.00;99.90;;;;;;5091295;28;20036;-26
2022/07/16 04:31:51;;;;;;;3.33;2.28;;;15.00;99.90;;;;;;5073166;28;20040;-26
2022/07/16 04:34:17;;;;;;;4.97;2.67;;;15.00;99.90;;;;;;5091523;28;20447;-26
2022/07/16 04:36:44;;;;;;;4.05;2.63;;;14.90;99.90;;;;;;5091688;28;20079;-25
2022/07/16 04:39:10;;;;;;;5.45;2.20;;;14.90;99.90;;;;;;5091279;28;20227;-27
2022/07/16 04:41:38;;;;;;;4.57;2.40;;;15.00;99.90;;;;;;5091400;28;20035;-26
2022/07/16 04:44:04;;;;;;;4.63;3.20;;;15.00;99.90;;;;;;5093496;28;20088;-30
2022/07/16 04:46:33;;;;;;;3.50;2.22;;;15.10;99.90;;;;;;5102674;28;20130;-30
2022/07/16 04:48:59;;;;;;;4.13;2.40;;;15.20;99.90;;;;;;5105421;28;20400;-32
2022/07/16 04:51:24;;;;;;;3.00;2.30;;;15.30;99.90;;;;;;5106308;28;20040;-31
2022/07/16 04:53:50;;;;;;;4.00;2.45;;;15.30;99.90;;;;;;5096123;28;20126;-31
2022/07/16 04:56:15;;;;;;;5.32;2.42;;;15.30;99.90;;;;;;5093063;28;20119;-30
2022/07/16 04:58:41;;;;;;;2.83;2.05;;;15.30;99.90;;;;;;5103126;28;20035;-31
2022/07/16 05:01:07;;;;;;;3.65;2.38;;;15.30;99.90;;;;;;5090231;28;20043;-30
2022/07/16 05:03:33;;;;;;;5.20;2.63;;;15.20;99.90;;;;;;5107799;28;20063;-31
2022/07/16 05:05:59;;;;;;;5.57;2.13;;;15.30;99.90;;;;;;5099861;28;20067;-31
2022/07/16 05:08:25;;;;;;;7.50;2.25;;;15.30;99.90;;;;;;5109282;28;20035;-31
2022/07/16 05:10:51;;;;;;;6.55;2.40;;;15.30;99.90;;;;;;5101831;28;20031;-31
2022/07/16 05:13:16;;;;;;;4.82;2.40;;;15.30;99.90;;;;;;5097165;28;20043;-32
2022/07/16 05:15:42;;;;;;;4.28;2.25;;;15.20;99.90;;;;;;5071239;28;20032;-27
2022/07/16 05:18:09;;;;;;;4.03;2.45;;;15.20;99.90;;;;;;5097936;28;20032;-28
2022/07/16 05:20:35;;;;;;;5.45;2.58;;;15.30;99.90;;;;;;5110370;28;20044;-28
2022/07/16 05:23:00;;;;;;;3.70;2.08;;;15.30;99.90;;;;;;5111262;28;20050;-28
2022/07/16 05:25:26;;;;;;;4.85;2.25;;;15.30;99.90;;;;;;5108805;28;20171;-26
2022/07/16 05:27:52;;;;;;;4.82;1.80;;;15.30;99.90;;;;;;5111182;28;20043;-25
2022/07/16 05:30:21;;;;;;;3.42;2.42;;;15.30;99.90;;;;;;5111195;28;20392;-27
2022/07/16 05:32:46;;;;;;;4.55;2.10;;;15.30;99.90;;;;;;5111023;28;20084;-28
2022/07/16 05:35:14;;;;;;;4.72;2.25;;;15.40;99.90;;;;;;5094455;28;20040;-27
2022/07/16 05:37:40;;;;;;;7.85;2.60;;;15.40;99.90;;;;;;5089559;28;20044;-26
2022/07/16 05:40:07;;;;;;;6.28;2.40;;;15.40;99.90;;;;;;5110609;28;20073;-26
2022/07/16 05:42:33;;;;;;;4.20;1.88;;;15.50;99.90;;;;;;5093074;28;20477;-26
2022/07/16 05:45:02;;;;;;;6.63;2.00;;;15.50;99.90;;;;;;5106650;28;20044;-27
2022/07/16 05:47:28;;;;;;;6.75;2.20;;;15.50;99.90;;;;;;5104041;28;20040;-26
2022/07/16 05:49:54;;;;;;;4.68;2.00;;;15.50;99.90;;;;;;5100541;28;20028;-27
2022/07/16 05:52:22;;;;;;;4.70;1.85;;;15.60;99.90;;;;;;5110894;28;20035;-25
2022/07/16 05:54:48;;;;;;;5.10;1.83;;;15.60;99.90;;;;;;5107280;28;20032;-26
2022/07/16 05:57:14;;;;;;;4.50;2.03;;;15.60;99.90;;;;;;5093470;28;20774;-27
2022/07/16 05:59:39;;;;;;;5.93;1.90;;;15.60;99.90;;;;;;5114882;28;20495;-27
2022/07/16 06:02:05;;;;;;;4.50;1.77;;;15.70;99.90;;;;;;5096728;28;20393;-26
2022/07/16 06:04:31;;;;;;;5.85;2.35;;;15.70;99.90;;;;;;5099760;28;20489;-27
2022/07/16 06:06:57;;;;;;;3.95;1.95;;;15.80;99.90;;;;;;5114392;28;20335;-27
2022/07/16 06:09:25;;;;;;;6.72;1.63;;;15.80;99.90;;;;;;5114619;28;20518;-27
2022/07/16 06:11:51;;;;;;;4.63;1.60;;;15.90;99.90;;;;;;5110455;28;20485;-26
2022/07/16 06:14:16;;;;;;;5.78;1.95;;;16.00;99.90;;;;;;5104061;28;20136;-26
2022/07/16 06:16:45;;;;;;;4.28;1.80;;;16.10;99.90;;;;;;5110014;28;20062;-28
2022/07/16 06:19:10;;;;;;;3.97;1.60;;;16.10;99.90;;;;;;5112436;28;20035;-25
2022/07/16 06:21:36;;;;;;;5.28;2.00;;;16.10;99.90;;;;;;5080703;28;20062;-26
2022/07/16 06:24:02;;;;;;;3.85;1.48;;;16.00;99.90;;;;;;5114490;28;20050;-28
2022/07/16 06:26:28;;;;;;;5.97;2.13;;;16.00;99.90;;;;;;5110580;28;20392;-26
2022/07/16 06:28:54;;;;;;;5.00;1.42;;;16.00;99.90;;;;;;5112475;28;20028;-27
2022/07/16 06:31:19;;;;;;;3.28;1.40;;;16.00;99.90;;;;;;5107102;28;20035;-27
2022/07/16 06:33:45;;;;;;;5.43;1.58;;;16.10;99.90;;;;;;5110589;28;20043;-27
2022/07/16 06:36:11;;;;;;;6.22;1.60;;;16.10;99.90;;;;;;5106297;28;20028;-26
2022/07/16 06:38:43;;;;;;;5.55;1.63;;;16.20;99.90;;;;;;5113723;28;20173;-30
2022/07/16 06:41:08;;;;;;;3.80;1.48;;;16.30;99.90;;;;;;5105790;28;20396;-31
2022/07/16 06:43:34;;;;;;;3.92;1.23;;;16.40;99.90;;;;;;5104847;28;20043;-31
2022/07/16 06:46:00;;;;;;;3.58;1.00;;;16.50;99.90;;;;;;5107556;28;20050;-30
2022/07/16 06:48:25;;;;;;;4.75;1.48;;;16.50;99.90;;;;;;5106726;28;20036;-32
2022/07/16 06:50:51;;;;;;;7.22;2.22;;;16.60;99.90;;;;;;5104001;28;20031;-29
2022/07/16 06:53:17;;;;;;;5.90;1.50;;;16.70;99.90;;;;;;5110819;28;20116;-33
2022/07/16 06:55:42;;;;;;;5.95;1.35;;;16.60;99.90;;;;;;5111034;28;20089;-30
2022/07/16 06:58:09;;;;;;;3.90;1.50;;;16.70;99.90;;;;;;5109222;28;20035;-32
2022/07/16 07:00:34;;;;;;;5.88;1.38;;;16.90;99.90;;;;;;5106243;28;20050;-30
2022/07/16 07:03:00;;;;;;;6.03;1.70;;;17.10;99.90;;;;;;5108480;28;20043;-30
2022/07/16 07:05:26;;;;;;;4.00;1.60;;;17.20;99.90;;;;;;5105929;28;20040;-30
2022/07/16 07:07:55;;;;;;;3.63;1.45;;;17.30;99.90;;;;;;5108345;28;20061;-31
2022/07/16 07:10:20;;;;;;;2.75;0.98;;;17.50;99.90;;;;;;5110580;28;20039;-31
2022/07/16 07:12:49;;;;;;;4.40;1.13;;;17.80;99.90;;;;;;5108694;28;20388;-30
2022/07/16 07:15:18;;;;;;;5.63;1.25;;;17.90;99.90;;;;;;5108343;28;20493;-30
2022/07/16 07:17:44;;;;;;;4.07;1.20;;;17.90;99.90;;;;;;5100322;28;20657;-30
2022/07/16 07:20:11;;;;;;;6.10;1.30;;;17.90;99.90;;;;;;5102574;28;20042;-32
2022/07/16 07:22:37;;;;;;;3.53;1.30;;;18.00;99.90;;;;;;5109781;28;20416;-31
2022/07/16 07:25:03;;;;;;;3.38;1.25;;;18.10;99.90;;;;;;5078880;28;20122;-31
2022/07/16 07:27:29;;;;;;;6.15;1.10;;;18.10;99.90;;;;;;5106958;28;20050;-31
2022/07/16 07:29:57;;;;;;;4.57;1.20;;;18.10;99.90;;;;;;5102367;28;20515;-31
2022/07/16 07:32:29;;;;;;;3.92;0.85;;;18.10;99.90;;;;;;5088833;28;20082;-31
2022/07/16 07:34:58;;;;;;;2.95;1.08;;;17.90;99.90;;;;;;5106357;28;20044;-32
2022/07/16 07:37:23;;;;;;;6.75;1.40;;;17.80;99.90;;;;;;5105587;28;20043;-31
2022/07/16 07:39:49;;;;;;;6.88;1.67;;;17.70;99.90;;;;;;5099962;28;20380;-30
2022/07/16 07:42:17;;;;;;;5.00;1.10;;;17.60;99.90;;;;;;5096672;28;20040;-26
2022/07/16 07:44:43;;;;;;;2.97;0.90;;;17.60;99.90;;;;;;5092861;28;20178;-28
2022/07/16 07:47:12;;;;;;;3.50;1.00;;;17.90;99.90;;;;;;5092839;28;20036;-26
2022/07/16 07:49:47;;;;;;;2.25;0.93;;;18.30;99.90;;;;;;5092546;28;20040;-26
2022/07/16 07:52:13;;;;;;;3.20;1.10;;;18.60;99.90;;;;;;5092808;28;20035;-26
2022/07/16 07:54:39;;;;;;;3.63;1.17;;;19.00;99.90;;;;;;5092697;28;20111;-26
2022/07/16 07:57:05;;;;;;;4.05;1.13;;;19.10;99.90;;;;;;5092723;28;20039;-27
2022/07/16 07:59:33;;;;;;;4.70;1.50;;;19.30;99.90;;;;;;5092407;28;20058;-26
2022/07/16 08:01:59;;;;;;;3.53;0.90;;;19.20;99.90;;;;;;5092465;28;20040;-26
2022/07/16 08:04:25;;;;;;;4.50;1.00;;;19.40;99.90;;;;;;5092740;28;20456;-26
2022/07/16 08:06:51;;;;;;;4.47;1.00;;;19.40;99.90;;;;;;5092218;28;20051;-27
2022/07/16 08:09:20;;;;;;;3.80;1.15;;;19.50;99.90;;;;;;5092257;28;20036;-27
2022/07/16 08:11:45;;;;;;;3.28;1.10;;;19.50;99.90;;;;;;5092258;28;20036;-26
2022/07/16 08:14:11;;;;;;;4.78;0.98;;;19.30;99.90;;;;;;5092579;28;20133;-26
2022/07/16 08:16:37;;;;;;;3.13;1.00;;;19.30;99.90;;;;;;5092055;28;20529;-27
2022/07/16 08:19:02;;;;;;;2.30;0.98;;;19.10;99.90;;;;;;5091563;28;20036;-26
2022/07/16 08:21:28;;;;;;;2.00;1.00;;;19.00;99.90;;;;;;5091869;28;20076;-26
2022/07/16 08:26:41;;;;;;;3.45;1.10;;;18.50;99.60;;;;;;5092271;28;20071;-27
2022/07/16 08:29:10;;;;;;;1.63;0.80;;;18.30;99.90;;;;;;5091448;28;20389;-26
2022/07/16 08:31:35;;;;;;;2.97;1.00;;;18.60;99.90;;;;;;5090526;28;20035;-27
2022/07/16 08:34:01;;;;;;;6.68;1.08;;;19.00;99.90;;;;;;5092150;28;20156;-26
2022/07/16 08:36:27;;;;;;;3.25;0.80;;;19.50;98.80;;;;;;5090552;28;20435;-26
2022/07/16 08:38:53;;;;;;;3.05;0.82;;;20.00;97.60;;;;;;5091696;28;20229;-26
2022/07/16 08:41:19;;;;;;;3.28;1.17;;;20.30;96.20;;;;;;5091760;28;20039;-26
2022/07/16 08:43:45;;;;;;;3.75;0.80;;;20.30;94.50;;;;;;5091954;28;20501;-27
2022/07/16 08:46:12;;;;;;;2.53;0.95;;;20.20;93.50;;;;;;5091985;28;20485;-26
2022/07/16 08:48:38;;;;;;;2.60;0.90;;;20.50;92.80;;;;;;5091527;28;20115;-27
2022/07/16 08:51:09;;;;;;;6.03;1.10;;;20.90;91.70;;;;;;5091482;28;20392;-26
2022/07/16 08:53:36;;;;;;;2.28;1.00;;;21.30;75.50;;;;;;5091199;28;20036;-28
2022/07/16 08:56:02;;;;;;;1.67;0.70;;;21.80;88.50;;;;;;5091600;28;20062;-27
2022/07/16 08:58:32;;;;;;;3.88;0.90;;;22.30;84.70;;;;;;5091158;28;20549;-27
2022/07/16 09:00:58;;;;;;;3.05;0.80;;;22.50;73.90;;;;;;5091320;28;20040;-27
2022/07/16 09:03:24;;;;;;;3.03;1.30;;;22.30;73.60;;;;;;5091783;28;20403;-26
2022/07/16 09:05:51;;;;;;;4.28;1.33;;;22.10;73.50;;;;;;5091436;28;20036;-27
2022/07/16 09:08:20;;;;;;;3.28;0.93;;;22.10;73.40;;;;;;5091491;28;20075;-27
2022/07/16 09:10:46;;;;;;;2.28;0.98;;;22.30;67.40;;;;;;5098368;28;20036;-30
2022/07/16 09:13:12;;;;;;;2.80;0.70;;;22.50;65.80;;;;;;5109830;28;20027;-27
2022/07/16 09:15:43;;;;;;;3.58;0.80;;;22.60;62.10;;;;;;5099306;28;20065;-27
2022/07/16 09:18:14;;;;;;;2.63;0.60;;;22.70;62.20;;;;;;5092532;28;20071;-27
2022/07/16 09:20:49;;;;;;;3.72;1.08;;;23.00;61.70;;;;;;5095914;28;20148;-26
2022/07/16 09:23:30;;;;;;;3.15;0.80;;;22.70;59.20;;;;;;5111378;28;20090;-27
2022/07/16 09:26:01;;;;;;;2.20;0.60;;;22.60;58.70;;;;;;5103948;28;20035;-28
2022/07/16 09:28:40;;;;;;;3.50;1.15;;;22.60;58.20;;;;;;5086480;28;20050;-27
2022/07/16 09:31:06;;;;;;;2.15;0.82;;;22.30;60.60;;;;;;5102767;28;20043;-27
2022/07/16 10:16:45;;;;;;;2.35;1.02;;;23.60;53.20;;;;;;5103689;28;20416;-31
2022/07/16 10:19:12;;;;;;;4.00;1.55;;;23.40;58.30;;;;;;5093476;28;20566;-30
2022/07/16 12:45:31;;;;;;;3.40;1.33;;;27.60;43.90;;;;;;5101006;28;20050;-33
2022/07/16 12:47:57;;;;;;;5.13;1.38;;;27.80;43.90;;;;;;5096486;28;20031;-34
2022/07/16 12:50:23;;;;;;;1.90;0.90;;;28.60;44.90;;;;;;5101820;28;20086;-31
2022/07/16 12:52:49;;;;;;;3.97;1.17;;;28.40;44.40;;;;;;5101248;28;20077;-34
2022/07/16 13:00:43;;;;;;;3.65;1.35;;;28.90;44.00;;;;;;5088391;28;20063;-31
2022/07/16 13:03:08;;;;;;;2.30;1.10;;;28.90;44.10;;;;;;5099656;28;20499;-33
2022/07/16 13:05:34;;;;;;;3.33;1.10;;;29.20;44.40;;;;;;5098915;28;20036;-34
2022/07/16 13:08:00;;;;;;;3.20;0.93;;;28.70;42.20;;;;;;5097740;28;20127;-30
2022/07/16 13:10:25;;;;;;;1.73;0.70;;;28.20;42.60;;;;;;5096484;28;20058;-33
2022/07/16 13:12:51;;;;;;;1.80;0.75;;;27.60;42.80;;;;;;5101019;28;20035;-31
2022/07/16 13:15:17;;;;;;;3.28;1.00;;;27.10;42.90;;;;;;5102832;28;20032;-31
2022/07/16 13:17:43;;;;;;;2.95;1.25;;;26.90;44.00;;;;;;5107901;28;20082;-33
2022/07/16 13:20:12;;;;;;;2.85;1.20;;;27.40;45.00;;;;;;5088993;28;20091;-30
2022/07/16 13:22:37;;;;;;;2.28;0.93;;;27.70;44.10;;;;;;5104525;28;20122;-29
2022/07/16 13:25:03;;;;;;;3.33;0.95;;;27.80;42.80;;;;;;5104291;28;20469;-33
2022/07/16 13:27:29;;;;;;;2.55;0.90;;;28.20;42.60;;;;;;5091170;28;20494;-33
2022/07/16 13:29:55;;;;;;;3.97;1.40;;;28.50;42.00;;;;;;5082455;28;20044;-30
2022/07/16 13:32:21;;;;;;;2.38;0.77;;;28.50;41.90;;;;;;5101461;28;20028;-31
2022/07/16 13:34:46;;;;;;;3.00;1.00;;;28.20;41.90;;;;;;5106437;28;20129;-33
2022/07/16 13:37:13;;;;;;;2.95;0.82;;;28.00;41.50;;;;;;5108110;28;20067;-30
2022/07/16 13:39:39;;;;;;;4.13;1.00;;;28.10;42.50;;;;;;5096800;28;20063;-31
2022/07/16 13:42:05;;;;;;;4.75;0.93;;;28.20;42.60;;;;;;5076272;28;20048;-29
2022/07/16 13:44:30;;;;;;;2.60;1.10;;;28.50;42.30;;;;;;5094078;28;20480;-33
2022/07/16 13:46:56;;;;;;;2.85;0.85;;;28.90;43.00;;;;;;5098653;28;20052;-31
2022/07/16 13:49:22;;;;;;;9.63;1.67;;;29.00;42.10;;;;;;5106365;28;20051;-30
2022/07/16 13:51:48;;;;;;;3.75;1.20;;;29.30;41.60;;;;;;5075295;28;20067;-30
2022/07/16 13:54:14;;;;;;;2.40;0.90;;;29.20;39.80;;;;;;5098442;28;20123;-32
2022/07/16 13:56:40;;;;;;;1.88;0.90;;;29.00;39.20;;;;;;5105656;28;20577;-32
2022/07/16 13:59:06;;;;;;;4.22;1.05;;;29.00;39.60;;;;;;5094569;28;20027;-31
2022/07/16 14:01:32;;;;;;;6.53;1.08;;;29.30;39.90;;;;;;5101856;28;20680;-34
2022/07/16 14:03:58;;;;;;;3.25;1.30;;;29.60;40.10;;;;;;5101544;28;20051;-31
2022/07/16 14:06:23;;;;;;;2.53;0.95;;;30.00;40.00;;;;;;5099017;28;20034;-31
2022/07/16 14:08:49;;;;;;;3.33;1.00;;;30.60;39.60;;;;;;5101002;28;20455;-29
2022/07/16 14:11:15;;;;;;;3.15;0.90;;;30.70;38.50;;;;;;5092167;28;20079;-33
2022/07/16 14:13:41;;;;;;;1.38;0.80;;;30.90;38.10;;;;;;5099606;28;20089;-30
2022/07/16 14:16:07;;;;;;;2.53;0.93;;;31.00;38.40;;;;;;5087432;28;20043;-30
2022/07/16 14:18:33;;;;;;;2.35;1.13;;;30.70;37.60;;;;;;5100824;28;20432;-34
2022/07/16 14:20:58;;;;;;;4.78;1.13;;;30.20;36.80;;;;;;5105359;28;20081;-31
2022/07/16 14:23:24;;;;;;;3.85;1.05;;;29.80;36.70;;;;;;5103725;28;20044;-32
2022/07/16 14:25:50;;;;;;;2.97;0.90;;;29.80;36.90;;;;;;5106852;28;20040;-34
2022/07/16 14:28:16;;;;;;;2.83;1.13;;;29.40;37.10;;;;;;5101987;28;20048;-33
2022/07/16 14:30:41;;;;;;;2.72;1.17;;;28.80;37.60;;;;;;5108040;28;20097;-29
2022/07/16 14:33:08;;;;;;;2.85;1.05;;;28.60;39.20;;;;;;5109538;28;20089;-31
2022/07/16 14:35:34;;;;;;;5.07;1.33;;;28.70;39.50;;;;;;5106353;28;20032;-31
2022/07/16 14:38:00;;;;;;;4.05;1.38;;;29.20;39.20;;;;;;5107848;28;20075;-30
2022/07/16 14:40:25;;;;;;;1.98;0.98;;;29.70;39.00;;;;;;5110703;28;20074;-32
2022/07/16 14:42:51;;;;;;;2.30;0.88;;;29.80;38.40;;;;;;5105785;28;20036;-32
2022/07/16 14:45:20;;;;;;;3.38;1.10;;;29.90;38.40;;;;;;5108222;28;20108;-32
2022/07/16 14:47:47;;;;;;;3.78;1.40;;;29.50;38.10;;;;;;5106701;28;20044;-30
2022/07/16 14:50:14;;;;;;;4.15;1.45;;;28.70;38.20;;;;;;5084336;28;20054;-30
2022/07/16 14:52:42;;;;;;;4.28;1.33;;;28.00;39.00;;;;;;5103890;28;20042;-32
2022/07/16 14:55:09;;;;;;;3.30;1.10;;;27.30;40.30;;;;;;5095762;28;20633;-30
2022/07/16 14:57:36;;;;;;;3.13;1.00;;;27.00;41.30;;;;;;5109079;28;20035;-31
2022/07/16 15:00:04;;;;;;;5.78;1.38;;;26.50;42.50;;;;;;5102953;28;20067;-32
2022/07/16 15:02:29;;;;;;;2.80;1.30;;;26.90;41.80;;;;;;5107525;28;20036;-33
2022/07/16 15:04:55;;;;;;;3.90;1.38;;;27.70;42.20;;;;;;5106227;28;21259;-34
2022/07/16 15:07:21;;;;;;;5.30;1.10;;;28.50;41.80;;;;;;5104066;28;20038;-33
2022/07/16 15:09:47;;;;;;;4.63;1.38;;;29.10;41.70;;;;;;5106744;28;20512;-30
2022/07/16 15:12:13;;;;;;;4.80;1.20;;;29.30;40.10;;;;;;5105052;28;20114;-31
2022/07/16 15:14:40;;;;;;;4.00;1.35;;;29.30;41.40;;;;;;5107489;28;20123;-31
2022/07/16 15:17:05;;;;;;;5.13;1.40;;;28.60;41.60;;;;;;5102867;28;20040;-31
2022/07/16 15:19:31;;;;;;;2.65;1.15;;;27.80;42.00;;;;;;5101860;28;20042;-31
2022/07/16 15:21:57;;;;;;;2.35;0.90;;;27.00;43.30;;;;;;5104214;28;20048;-31
2022/07/16 15:24:23;;;;;;;4.00;1.20;;;26.50;43.30;;;;;;5091506;28;20031;-31
2022/07/16 15:26:49;;;;;;;4.15;1.27;;;26.40;42.60;;;;;;5103585;28;20467;-31
2022/07/16 15:29:14;;;;;;;4.63;1.52;;;26.70;44.20;;;;;;5109028;28;20032;-32
2022/07/16 15:31:40;;;;;;;4.45;2.00;;;27.30;44.00;;;;;;5103133;28;20396;-30
2022/07/16 15:34:06;;;;;;;3.22;1.10;;;27.90;43.20;;;;;;5109382;28;20047;-32
2022/07/16 15:36:34;;;;;;;2.78;1.17;;;28.40;42.50;;;;;;5110512;28;20035;-28
2022/07/16 15:39:00;;;;;;;2.28;1.05;;;28.70;41.60;;;;;;5089895;28;20043;-29
2022/07/16 15:41:26;;;;;;;3.67;1.05;;;28.90;42.20;;;;;;5102300;28;20106;-31
2022/07/16 15:43:51;;;;;;;3.35;1.00;;;28.90;41.70;;;;;;5105017;28;20027;-29
2022/07/16 15:46:17;;;;;;;4.15;1.60;;;29.20;42.10;;;;;;5104974;28;20039;-33
2022/07/16 15:48:43;;;;;;;3.38;1.30;;;29.60;41.00;;;;;;5106988;28;20118;-32
2022/07/16 15:51:09;;;;;;;4.60;1.30;;;29.50;40.50;;;;;;5083016;28;20038;-31
2022/07/16 15:53:35;;;;;;;5.05;1.42;;;29.20;39.70;;;;;;5106011;28;20055;-32
2022/07/16 15:56:01;;;;;;;2.55;1.10;;;29.30;40.50;;;;;;5085233;28;20503;-32
2022/07/16 15:58:27;;;;;;;3.47;1.15;;;29.90;40.90;;;;;;5083137;28;20035;-32
2022/07/16 16:00:52;;;;;;;2.67;1.20;;;30.40;39.30;;;;;;5089471;28;20028;-31
2022/07/16 16:03:18;;;;;;;2.33;1.30;;;30.80;39.30;;;;;;5105534;27;20042;-30